Aviation Digital Data Service (ADDS)

Output produced by METARs form (0133 UTC 19 October 2017)
found at http://aviationweather.gov/adds/metars/
 
KCON 182320Z 1900/1924 00000KT P6SM SKC 
     FM191800 22009G16KT P6SM SKC 
     FM192200 20005KT P6SM SKC